sensor_id;sensor_type;location;lat;lon;timestamp;P1;durP1;ratioP1;P2;durP2;ratioP2
1360;SDS011;674;45.552;-122.600;2023-07-31T00:00:57;5.30;;;3.27;;
1360;SDS011;674;45.552;-122.600;2023-07-31T00:03:26;6.23;;;3.83;;
1360;SDS011;674;45.552;-122.600;2023-07-31T00:05:54;8.10;;;3.63;;
1360;SDS011;674;45.552;-122.600;2023-07-31T00:08:23;7.87;;;3.90;;
1360;SDS011;674;45.552;-122.600;2023-07-31T00:10:52;11.17;;;4.90;;
1360;SDS011;674;45.552;-122.600;2023-07-31T00:13:21;3.30;;;3.10;;
1360;SDS011;674;45.552;-122.600;2023-07-31T00:15:49;3.70;;;3.40;;
1360;SDS011;674;45.552;-122.600;2023-07-31T00:18:18;3.17;;;2.80;;
1360;SDS011;674;45.552;-122.600;2023-07-31T00:20:47;3.30;;;3.00;;
1360;SDS011;674;45.552;-122.600;2023-07-31T00:23:15;3.57;;;3.27;;
1360;SDS011;674;45.552;-122.600;2023-07-31T00:25:44;3.50;;;3.10;;
1360;SDS011;674;45.552;-122.600;2023-07-31T00:28:12;3.87;;;3.57;;
1360;SDS011;674;45.552;-122.600;2023-07-31T00:30:41;3.70;;;3.40;;
1360;SDS011;674;45.552;-122.600;2023-07-31T00:33:09;4.10;;;3.40;;
1360;SDS011;674;45.552;-122.600;2023-07-31T00:35:38;3.80;;;3.50;;
1360;SDS011;674;45.552;-122.600;2023-07-31T00:38:06;3.70;;;3.30;;
1360;SDS011;674;45.552;-122.600;2023-07-31T00:40:35;4.77;;;3.60;;
1360;SDS011;674;45.552;-122.600;2023-07-31T00:43:04;3.17;;;2.87;;
1360;SDS011;674;45.552;-122.600;2023-07-31T00:45:33;4.03;;;3.37;;
1360;SDS011;674;45.552;-122.600;2023-07-31T00:48:02;3.33;;;3.03;;
1360;SDS011;674;45.552;-122.600;2023-07-31T00:50:34;3.67;;;3.37;;
1360;SDS011;674;45.552;-122.600;2023-07-31T00:53:03;2.80;;;2.60;;
1360;SDS011;674;45.552;-122.600;2023-07-31T00:55:32;3.50;;;3.17;;
1360;SDS011;674;45.552;-122.600;2023-07-31T00:58:01;4.00;;;3.47;;
1360;SDS011;674;45.552;-122.600;2023-07-31T01:00:29;3.40;;;3.10;;
1360;SDS011;674;45.552;-122.600;2023-07-31T01:02:58;4.17;;;3.77;;
1360;SDS011;674;45.552;-122.600;2023-07-31T01:05:36;3.30;;;3.00;;
1360;SDS011;674;45.552;-122.600;2023-07-31T01:08:18;5.43;;;3.10;;
1360;SDS011;674;45.552;-122.600;2023-07-31T01:11:06;3.40;;;2.73;;
1360;SDS011;674;45.552;-122.600;2023-07-31T01:13:56;3.10;;;2.90;;
1360;SDS011;674;45.552;-122.600;2023-07-31T01:16:25;4.40;;;3.23;;
1360;SDS011;674;45.552;-122.600;2023-07-31T01:18:54;3.27;;;2.87;;
1360;SDS011;674;45.552;-122.600;2023-07-31T01:21:36;3.40;;;3.10;;
1360;SDS011;674;45.552;-122.600;2023-07-31T01:24:21;3.70;;;3.40;;
1360;SDS011;674;45.552;-122.600;2023-07-31T01:26:57;3.20;;;2.90;;
1360;SDS011;674;45.552;-122.600;2023-07-31T01:29:38;3.13;;;2.83;;
1360;SDS011;674;45.552;-122.600;2023-07-31T01:32:11;3.23;;;2.80;;
1360;SDS011;674;45.552;-122.600;2023-07-31T01:34:41;4.00;;;3.20;;
1360;SDS011;674;45.552;-122.600;2023-07-31T01:37:10;5.13;;;3.37;;
1360;SDS011;674;45.552;-122.600;2023-07-31T01:39:38;3.60;;;3.30;;
1360;SDS011;674;45.552;-122.600;2023-07-31T01:42:07;3.57;;;3.00;;
1360;SDS011;674;45.552;-122.600;2023-07-31T01:44:35;3.50;;;3.20;;
1360;SDS011;674;45.552;-122.600;2023-07-31T01:47:04;3.43;;;3.13;;
1360;SDS011;674;45.552;-122.600;2023-07-31T01:49:33;5.10;;;4.70;;
1360;SDS011;674;45.552;-122.600;2023-07-31T01:52:02;3.27;;;2.97;;
1360;SDS011;674;45.552;-122.600;2023-07-31T01:54:30;4.47;;;3.27;;
1360;SDS011;674;45.552;-122.600;2023-07-31T01:56:59;3.83;;;3.17;;
1360;SDS011;674;45.552;-122.600;2023-07-31T01:59:27;3.97;;;3.47;;
1360;SDS011;674;45.552;-122.600;2023-07-31T02:01:56;3.80;;;3.50;;
1360;SDS011;674;45.552;-122.600;2023-07-31T02:04:24;3.57;;;3.03;;
1360;SDS011;674;45.552;-122.600;2023-07-31T02:06:53;3.33;;;3.00;;
1360;SDS011;674;45.552;-122.600;2023-07-31T02:09:21;3.50;;;3.20;;
1360;SDS011;674;45.552;-122.600;2023-07-31T02:11:50;3.13;;;2.80;;
1360;SDS011;674;45.552;-122.600;2023-07-31T02:14:18;3.30;;;3.00;;
1360;SDS011;674;45.552;-122.600;2023-07-31T02:16:47;3.47;;;3.17;;
1360;SDS011;674;45.552;-122.600;2023-07-31T02:19:16;3.03;;;2.83;;
1360;SDS011;674;45.552;-122.600;2023-07-31T02:21:44;3.67;;;3.37;;
1360;SDS011;674;45.552;-122.600;2023-07-31T02:24:13;3.03;;;2.73;;
1360;SDS011;674;45.552;-122.600;2023-07-31T02:26:42;4.33;;;3.93;;
1360;SDS011;674;45.552;-122.600;2023-07-31T02:29:10;4.10;;;3.80;;
1360;SDS011;674;45.552;-122.600;2023-07-31T02:31:39;3.10;;;2.80;;
1360;SDS011;674;45.552;-122.600;2023-07-31T02:34:08;4.03;;;3.63;;
1360;SDS011;674;45.552;-122.600;2023-07-31T02:36:36;3.43;;;3.00;;
1360;SDS011;674;45.552;-122.600;2023-07-31T02:39:05;3.63;;;3.33;;
1360;SDS011;674;45.552;-122.600;2023-07-31T02:41:33;3.70;;;3.27;;
1360;SDS011;674;45.552;-122.600;2023-07-31T02:44:02;5.23;;;3.57;;
1360;SDS011;674;45.552;-122.600;2023-07-31T02:46:34;5.57;;;3.07;;
1360;SDS011;674;45.552;-122.600;2023-07-31T02:49:03;3.70;;;3.30;;
1360;SDS011;674;45.552;-122.600;2023-07-31T02:51:32;3.10;;;2.80;;
1360;SDS011;674;45.552;-122.600;2023-07-31T02:54:00;5.47;;;3.13;;
1360;SDS011;674;45.552;-122.600;2023-07-31T02:56:30;3.83;;;3.07;;
1360;SDS011;674;45.552;-122.600;2023-07-31T02:58:59;3.70;;;3.40;;
1360;SDS011;674;45.552;-122.600;2023-07-31T03:01:28;3.50;;;2.93;;
1360;SDS011;674;45.552;-122.600;2023-07-31T03:03:56;4.10;;;3.57;;
1360;SDS011;674;45.552;-122.600;2023-07-31T03:06:25;3.70;;;2.90;;
1360;SDS011;674;45.552;-122.600;2023-07-31T03:08:54;4.37;;;3.10;;
1360;SDS011;674;45.552;-122.600;2023-07-31T03:11:23;3.87;;;3.50;;
1360;SDS011;674;45.552;-122.600;2023-07-31T03:13:51;4.10;;;3.57;;
1360;SDS011;674;45.552;-122.600;2023-07-31T03:16:20;4.20;;;2.80;;
1360;SDS011;674;45.552;-122.600;2023-07-31T03:18:52;3.50;;;3.17;;
1360;SDS011;674;45.552;-122.600;2023-07-31T03:21:20;4.90;;;3.10;;
1360;SDS011;674;45.552;-122.600;2023-07-31T03:23:49;3.60;;;3.30;;
1360;SDS011;674;45.552;-122.600;2023-07-31T03:26:20;3.57;;;3.10;;
1360;SDS011;674;45.552;-122.600;2023-07-31T03:28:49;3.50;;;2.90;;
1360;SDS011;674;45.552;-122.600;2023-07-31T03:31:17;3.30;;;3.00;;
1360;SDS011;674;45.552;-122.600;2023-07-31T03:33:48;3.37;;;3.07;;
1360;SDS011;674;45.552;-122.600;2023-07-31T03:36:20;3.13;;;2.87;;
1360;SDS011;674;45.552;-122.600;2023-07-31T03:38:49;4.50;;;2.90;;
1360;SDS011;674;45.552;-122.600;2023-07-31T03:41:18;4.10;;;3.03;;
1360;SDS011;674;45.552;-122.600;2023-07-31T03:43:49;3.30;;;3.00;;
1360;SDS011;674;45.552;-122.600;2023-07-31T03:46:23;3.63;;;3.33;;
1360;SDS011;674;45.552;-122.600;2023-07-31T03:48:52;5.00;;;3.27;;
1360;SDS011;674;45.552;-122.600;2023-07-31T03:51:21;3.07;;;2.77;;
1360;SDS011;674;45.552;-122.600;2023-07-31T03:53:50;3.40;;;2.40;;
1360;SDS011;674;45.552;-122.600;2023-07-31T03:56:18;3.57;;;2.57;;
1360;SDS011;674;45.552;-122.600;2023-07-31T03:58:47;3.70;;;2.80;;
1360;SDS011;674;45.552;-122.600;2023-07-31T04:01:15;3.17;;;2.87;;
1360;SDS011;674;45.552;-122.600;2023-07-31T04:03:45;3.33;;;3.03;;
1360;SDS011;674;45.552;-122.600;2023-07-31T04:06:13;3.40;;;2.83;;
1360;SDS011;674;45.552;-122.600;2023-07-31T04:08:45;2.93;;;2.70;;
1360;SDS011;674;45.552;-122.600;2023-07-31T04:11:13;6.80;;;2.70;;
1360;SDS011;674;45.552;-122.600;2023-07-31T04:13:42;2.97;;;2.67;;
1360;SDS011;674;45.552;-122.600;2023-07-31T04:16:11;4.00;;;2.40;;
1360;SDS011;674;45.552;-122.600;2023-07-31T04:18:39;3.53;;;2.83;;
1360;SDS011;674;45.552;-122.600;2023-07-31T04:21:08;2.87;;;2.57;;
1360;SDS011;674;45.552;-122.600;2023-07-31T04:23:43;3.77;;;2.90;;
1360;SDS011;674;45.552;-122.600;2023-07-31T04:26:11;2.80;;;2.60;;
1360;SDS011;674;45.552;-122.600;2023-07-31T04:28:40;3.13;;;2.83;;
1360;SDS011;674;45.552;-122.600;2023-07-31T04:31:09;3.07;;;2.83;;
1360;SDS011;674;45.552;-122.600;2023-07-31T04:33:37;4.57;;;3.07;;
1360;SDS011;674;45.552;-122.600;2023-07-31T04:36:06;3.63;;;2.80;;
1360;SDS011;674;45.552;-122.600;2023-07-31T04:38:34;3.20;;;2.90;;
1360;SDS011;674;45.552;-122.600;2023-07-31T04:41:03;3.53;;;3.03;;
1360;SDS011;674;45.552;-122.600;2023-07-31T04:43:33;4.30;;;3.80;;
1360;SDS011;674;45.552;-122.600;2023-07-31T04:46:08;2.70;;;2.47;;
1360;SDS011;674;45.552;-122.600;2023-07-31T04:48:36;3.60;;;2.90;;
1360;SDS011;674;45.552;-122.600;2023-07-31T04:51:05;3.30;;;2.77;;
1360;SDS011;674;45.552;-122.600;2023-07-31T04:53:34;6.70;;;2.47;;
1360;SDS011;674;45.552;-122.600;2023-07-31T04:56:02;3.17;;;2.87;;
1360;SDS011;674;45.552;-122.600;2023-07-31T04:58:31;2.93;;;2.60;;
1360;SDS011;674;45.552;-122.600;2023-07-31T05:01:00;2.83;;;2.63;;
1360;SDS011;674;45.552;-122.600;2023-07-31T05:03:28;2.83;;;2.60;;
1360;SDS011;674;45.552;-122.600;2023-07-31T05:05:57;3.13;;;2.30;;
1360;SDS011;674;45.552;-122.600;2023-07-31T05:08:26;5.70;;;2.87;;
1360;SDS011;674;45.552;-122.600;2023-07-31T05:10:54;2.80;;;2.60;;
1360;SDS011;674;45.552;-122.600;2023-07-31T05:13:23;3.80;;;3.00;;
1360;SDS011;674;45.552;-122.600;2023-07-31T05:15:51;2.97;;;2.67;;
1360;SDS011;674;45.552;-122.600;2023-07-31T05:18:20;3.90;;;3.17;;
1360;SDS011;674;45.552;-122.600;2023-07-31T05:20:48;3.90;;;2.87;;
1360;SDS011;674;45.552;-122.600;2023-07-31T05:23:17;9.43;;;3.03;;
1360;SDS011;674;45.552;-122.600;2023-07-31T05:25:46;2.73;;;2.40;;
1360;SDS011;674;45.552;-122.600;2023-07-31T05:28:14;3.30;;;2.83;;
1360;SDS011;674;45.552;-122.600;2023-07-31T05:30:43;3.40;;;2.70;;
1360;SDS011;674;45.552;-122.600;2023-07-31T05:33:11;2.57;;;2.37;;
1360;SDS011;674;45.552;-122.600;2023-07-31T05:35:40;3.40;;;2.90;;
1360;SDS011;674;45.552;-122.600;2023-07-31T05:38:11;3.10;;;2.60;;
1360;SDS011;674;45.552;-122.600;2023-07-31T05:40:39;3.60;;;2.60;;
1360;SDS011;674;45.552;-122.600;2023-07-31T05:43:10;3.30;;;2.60;;
1360;SDS011;674;45.552;-122.600;2023-07-31T05:45:38;3.10;;;2.50;;
1360;SDS011;674;45.552;-122.600;2023-07-31T05:48:08;2.53;;;2.33;;
1360;SDS011;674;45.552;-122.600;2023-07-31T05:50:37;2.33;;;2.10;;
1360;SDS011;674;45.552;-122.600;2023-07-31T05:53:07;2.73;;;2.47;;
1360;SDS011;674;45.552;-122.600;2023-07-31T05:55:35;3.20;;;2.73;;
1360;SDS011;674;45.552;-122.600;2023-07-31T05:58:04;2.53;;;2.33;;
1360;SDS011;674;45.552;-122.600;2023-07-31T06:00:32;3.90;;;2.60;;
1360;SDS011;674;45.552;-122.600;2023-07-31T06:03:01;2.50;;;2.30;;
1360;SDS011;674;45.552;-122.600;2023-07-31T06:05:30;3.10;;;2.80;;
1360;SDS011;674;45.552;-122.600;2023-07-31T06:08:04;2.47;;;2.27;;
1360;SDS011;674;45.552;-122.600;2023-07-31T06:10:33;2.17;;;1.97;;
1360;SDS011;674;45.552;-122.600;2023-07-31T06:13:02;3.00;;;2.50;;
1360;SDS011;674;45.552;-122.600;2023-07-31T06:15:31;2.80;;;2.60;;
1360;SDS011;674;45.552;-122.600;2023-07-31T06:18:00;3.40;;;2.73;;
1360;SDS011;674;45.552;-122.600;2023-07-31T06:20:32;2.63;;;2.43;;
1360;SDS011;674;45.552;-122.600;2023-07-31T06:23:06;2.93;;;2.17;;
1360;SDS011;674;45.552;-122.600;2023-07-31T06:25:35;3.60;;;2.73;;
1360;SDS011;674;45.552;-122.600;2023-07-31T06:28:04;2.60;;;2.40;;
1360;SDS011;674;45.552;-122.600;2023-07-31T06:30:33;3.50;;;2.80;;
1360;SDS011;674;45.552;-122.600;2023-07-31T06:33:01;2.97;;;2.43;;
1360;SDS011;674;45.552;-122.600;2023-07-31T06:35:30;2.93;;;2.23;;
1360;SDS011;674;45.552;-122.600;2023-07-31T06:37:59;2.80;;;2.47;;
1360;SDS011;674;45.552;-122.600;2023-07-31T06:40:27;2.70;;;2.50;;
1360;SDS011;674;45.552;-122.600;2023-07-31T06:42:56;3.47;;;2.23;;
1360;SDS011;674;45.552;-122.600;2023-07-31T06:45:24;2.50;;;2.30;;
1360;SDS011;674;45.552;-122.600;2023-07-31T06:47:53;3.13;;;2.10;;
1360;SDS011;674;45.552;-122.600;2023-07-31T06:50:24;2.50;;;2.30;;
1360;SDS011;674;45.552;-122.600;2023-07-31T06:52:52;2.93;;;2.63;;
1360;SDS011;674;45.552;-122.600;2023-07-31T06:55:21;2.93;;;2.63;;
1360;SDS011;674;45.552;-122.600;2023-07-31T06:57:51;2.60;;;2.40;;
1360;SDS011;674;45.552;-122.600;2023-07-31T07:00:21;3.57;;;2.53;;
1360;SDS011;674;45.552;-122.600;2023-07-31T07:02:51;2.87;;;2.67;;
1360;SDS011;674;45.552;-122.600;2023-07-31T07:05:19;2.50;;;2.20;;
1360;SDS011;674;45.552;-122.600;2023-07-31T07:07:49;4.40;;;2.97;;
1360;SDS011;674;45.552;-122.600;2023-07-31T07:10:21;2.90;;;2.60;;
1360;SDS011;674;45.552;-122.600;2023-07-31T07:12:49;2.50;;;2.30;;
1360;SDS011;674;45.552;-122.600;2023-07-31T07:15:18;2.73;;;2.50;;
1360;SDS011;674;45.552;-122.600;2023-07-31T07:17:46;3.27;;;2.80;;
1360;SDS011;674;45.552;-122.600;2023-07-31T07:20:15;3.03;;;2.73;;
1360;SDS011;674;45.552;-122.600;2023-07-31T07:22:44;2.93;;;2.73;;
1360;SDS011;674;45.552;-122.600;2023-07-31T07:25:12;2.50;;;2.27;;
1360;SDS011;674;45.552;-122.600;2023-07-31T07:27:41;4.40;;;2.50;;
1360;SDS011;674;45.552;-122.600;2023-07-31T07:30:09;3.53;;;3.00;;
1360;SDS011;674;45.552;-122.600;2023-07-31T07:32:38;2.77;;;2.53;;
1360;SDS011;674;45.552;-122.600;2023-07-31T07:35:07;3.07;;;2.77;;
1360;SDS011;674;45.552;-122.600;2023-07-31T07:37:35;3.10;;;2.50;;
1360;SDS011;674;45.552;-122.600;2023-07-31T07:40:04;3.63;;;2.27;;
1360;SDS011;674;45.552;-122.600;2023-07-31T07:42:33;2.30;;;2.10;;
1360;SDS011;674;45.552;-122.600;2023-07-31T07:45:02;3.43;;;2.23;;
1360;SDS011;674;45.552;-122.600;2023-07-31T07:47:30;3.73;;;2.40;;
1360;SDS011;674;45.552;-122.600;2023-07-31T07:49:59;3.87;;;2.83;;
1360;SDS011;674;45.552;-122.600;2023-07-31T07:52:27;3.00;;;2.70;;
1360;SDS011;674;45.552;-122.600;2023-07-31T07:54:56;2.73;;;2.43;;
1360;SDS011;674;45.552;-122.600;2023-07-31T07:57:24;4.83;;;2.33;;
1360;SDS011;674;45.552;-122.600;2023-07-31T07:59:53;2.87;;;2.50;;
1360;SDS011;674;45.552;-122.600;2023-07-31T08:02:22;3.30;;;2.30;;
1360;SDS011;674;45.552;-122.600;2023-07-31T08:04:51;3.17;;;2.63;;
1360;SDS011;674;45.552;-122.600;2023-07-31T08:07:19;2.50;;;2.27;;
1360;SDS011;674;45.552;-122.600;2023-07-31T08:09:47;2.70;;;2.50;;
1360;SDS011;674;45.552;-122.600;2023-07-31T08:12:16;2.73;;;2.40;;
1360;SDS011;674;45.552;-122.600;2023-07-31T08:14:45;2.37;;;2.17;;
1360;SDS011;674;45.552;-122.600;2023-07-31T08:17:13;2.80;;;2.33;;
1360;SDS011;674;45.552;-122.600;2023-07-31T08:19:42;2.57;;;2.10;;
1360;SDS011;674;45.552;-122.600;2023-07-31T08:22:11;2.93;;;2.40;;
1360;SDS011;674;45.552;-122.600;2023-07-31T08:24:39;2.77;;;2.30;;
1360;SDS011;674;45.552;-122.600;2023-07-31T08:27:08;3.73;;;2.50;;
1360;SDS011;674;45.552;-122.600;2023-07-31T08:29:36;2.57;;;2.37;;
1360;SDS011;674;45.552;-122.600;2023-07-31T08:32:08;3.07;;;2.17;;
1360;SDS011;674;45.552;-122.600;2023-07-31T08:34:36;2.50;;;2.30;;
1360;SDS011;674;45.552;-122.600;2023-07-31T08:37:05;2.50;;;2.30;;
1360;SDS011;674;45.552;-122.600;2023-07-31T08:39:33;4.03;;;3.10;;
1360;SDS011;674;45.552;-122.600;2023-07-31T08:42:02;2.40;;;2.10;;
1360;SDS011;674;45.552;-122.600;2023-07-31T08:44:31;2.90;;;2.43;;
1360;SDS011;674;45.552;-122.600;2023-07-31T08:47:00;2.53;;;2.30;;
1360;SDS011;674;45.552;-122.600;2023-07-31T08:49:29;2.40;;;2.20;;
1360;SDS011;674;45.552;-122.600;2023-07-31T08:51:59;3.03;;;2.40;;
1360;SDS011;674;45.552;-122.600;2023-07-31T08:54:28;2.90;;;2.60;;
1360;SDS011;674;45.552;-122.600;2023-07-31T08:56:58;2.77;;;2.47;;
1360;SDS011;674;45.552;-122.600;2023-07-31T08:59:31;2.67;;;2.47;;
1360;SDS011;674;45.552;-122.600;2023-07-31T09:02:04;3.60;;;2.97;;
1360;SDS011;674;45.552;-122.600;2023-07-31T09:04:35;3.17;;;2.70;;
1360;SDS011;674;45.552;-122.600;2023-07-31T09:07:04;2.97;;;2.40;;
1360;SDS011;674;45.552;-122.600;2023-07-31T09:09:33;3.20;;;2.90;;
1360;SDS011;674;45.552;-122.600;2023-07-31T09:12:02;2.67;;;2.30;;
1360;SDS011;674;45.552;-122.600;2023-07-31T09:14:31;4.83;;;2.50;;
1360;SDS011;674;45.552;-122.600;2023-07-31T09:17:01;3.00;;;2.70;;
1360;SDS011;674;45.552;-122.600;2023-07-31T09:19:31;2.70;;;2.50;;
1360;SDS011;674;45.552;-122.600;2023-07-31T09:22:01;3.17;;;2.50;;
1360;SDS011;674;45.552;-122.600;2023-07-31T09:24:31;3.40;;;2.67;;
1360;SDS011;674;45.552;-122.600;2023-07-31T09:27:01;2.80;;;2.60;;
1360;SDS011;674;45.552;-122.600;2023-07-31T09:29:29;2.80;;;2.57;;
1360;SDS011;674;45.552;-122.600;2023-07-31T09:31:58;3.00;;;2.70;;
1360;SDS011;674;45.552;-122.600;2023-07-31T09:34:30;3.10;;;2.60;;
1360;SDS011;674;45.552;-122.600;2023-07-31T09:37:08;2.97;;;2.67;;
1360;SDS011;674;45.552;-122.600;2023-07-31T09:39:46;2.53;;;2.33;;
1360;SDS011;674;45.552;-122.600;2023-07-31T09:42:24;3.27;;;2.97;;
1360;SDS011;674;45.552;-122.600;2023-07-31T09:44:53;2.40;;;2.20;;
1360;SDS011;674;45.552;-122.600;2023-07-31T09:47:34;4.00;;;2.90;;
1360;SDS011;674;45.552;-122.600;2023-07-31T09:50:06;3.10;;;2.30;;
1360;SDS011;674;45.552;-122.600;2023-07-31T09:52:38;3.47;;;2.83;;
1360;SDS011;674;45.552;-122.600;2023-07-31T09:55:07;3.70;;;3.17;;
1360;SDS011;674;45.552;-122.600;2023-07-31T09:57:42;3.10;;;2.80;;
1360;SDS011;674;45.552;-122.600;2023-07-31T10:00:16;3.93;;;2.70;;
1360;SDS011;674;45.552;-122.600;2023-07-31T10:02:45;4.10;;;2.90;;
1360;SDS011;674;45.552;-122.600;2023-07-31T10:05:15;3.20;;;2.83;;
1360;SDS011;674;45.552;-122.600;2023-07-31T10:07:53;3.43;;;2.60;;
1360;SDS011;674;45.552;-122.600;2023-07-31T10:10:22;2.83;;;2.53;;
1360;SDS011;674;45.552;-122.600;2023-07-31T10:12:53;3.10;;;2.70;;
1360;SDS011;674;45.552;-122.600;2023-07-31T10:15:23;2.67;;;2.47;;
1360;SDS011;674;45.552;-122.600;2023-07-31T10:17:53;2.80;;;2.60;;
1360;SDS011;674;45.552;-122.600;2023-07-31T10:20:23;3.00;;;2.67;;
1360;SDS011;674;45.552;-122.600;2023-07-31T10:22:54;3.10;;;2.80;;
1360;SDS011;674;45.552;-122.600;2023-07-31T10:25:24;4.10;;;2.73;;
1360;SDS011;674;45.552;-122.600;2023-07-31T10:27:54;3.13;;;2.60;;
1360;SDS011;674;45.552;-122.600;2023-07-31T10:30:26;3.37;;;2.60;;
1360;SDS011;674;45.552;-122.600;2023-07-31T10:33:00;3.03;;;2.53;;
1360;SDS011;674;45.552;-122.600;2023-07-31T10:35:29;3.90;;;3.33;;
1360;SDS011;674;45.552;-122.600;2023-07-31T10:38:19;2.90;;;2.50;;
1360;SDS011;674;45.552;-122.600;2023-07-31T10:40:46;3.17;;;2.60;;
1360;SDS011;674;45.552;-122.600;2023-07-31T10:43:24;3.23;;;2.53;;
1360;SDS011;674;45.552;-122.600;2023-07-31T10:45:57;4.47;;;3.20;;
1360;SDS011;674;45.552;-122.600;2023-07-31T10:48:26;3.30;;;2.77;;
1360;SDS011;674;45.552;-122.600;2023-07-31T10:51:06;2.90;;;2.60;;
1360;SDS011;674;45.552;-122.600;2023-07-31T10:53:37;2.50;;;2.30;;
1360;SDS011;674;45.552;-122.600;2023-07-31T10:56:08;3.17;;;2.87;;
1360;SDS011;674;45.552;-122.600;2023-07-31T10:58:40;3.03;;;2.70;;
1360;SDS011;674;45.552;-122.600;2023-07-31T11:01:13;3.77;;;2.90;;
1360;SDS011;674;45.552;-122.600;2023-07-31T11:03:49;2.90;;;2.57;;
1360;SDS011;674;45.552;-122.600;2023-07-31T11:06:21;3.17;;;2.87;;
1360;SDS011;674;45.552;-122.600;2023-07-31T11:08:50;3.73;;;2.53;;
1360;SDS011;674;45.552;-122.600;2023-07-31T11:11:19;3.93;;;2.90;;
1360;SDS011;674;45.552;-122.600;2023-07-31T11:13:49;2.57;;;2.37;;
1360;SDS011;674;45.552;-122.600;2023-07-31T11:16:22;3.20;;;2.90;;
1360;SDS011;674;45.552;-122.600;2023-07-31T11:18:52;3.20;;;2.90;;
1360;SDS011;674;45.552;-122.600;2023-07-31T11:21:23;3.40;;;3.10;;
1360;SDS011;674;45.552;-122.600;2023-07-31T11:23:53;2.90;;;2.70;;
1360;SDS011;674;45.552;-122.600;2023-07-31T11:26:27;3.40;;;2.50;;
1360;SDS011;674;45.552;-122.600;2023-07-31T11:28:58;2.83;;;2.53;;
1360;SDS011;674;45.552;-122.600;2023-07-31T11:31:26;2.73;;;2.53;;
1360;SDS011;674;45.552;-122.600;2023-07-31T11:34:13;3.80;;;2.70;;
1360;SDS011;674;45.552;-122.600;2023-07-31T11:36:52;4.53;;;3.03;;
1360;SDS011;674;45.552;-122.600;2023-07-31T11:39:22;4.43;;;2.87;;
1360;SDS011;674;45.552;-122.600;2023-07-31T11:41:50;2.93;;;2.60;;
1360;SDS011;674;45.552;-122.600;2023-07-31T11:44:19;3.03;;;2.73;;
1360;SDS011;674;45.552;-122.600;2023-07-31T11:46:56;4.00;;;2.77;;
1360;SDS011;674;45.552;-122.600;2023-07-31T11:49:25;2.80;;;2.60;;
1360;SDS011;674;45.552;-122.600;2023-07-31T11:51:54;3.97;;;2.70;;
1360;SDS011;674;45.552;-122.600;2023-07-31T11:54:22;3.03;;;2.67;;
1360;SDS011;674;45.552;-122.600;2023-07-31T11:56:51;2.90;;;2.63;;
1360;SDS011;674;45.552;-122.600;2023-07-31T11:59:20;4.43;;;2.90;;
1360;SDS011;674;45.552;-122.600;2023-07-31T12:01:49;3.33;;;2.90;;
1360;SDS011;674;45.552;-122.600;2023-07-31T12:04:20;3.30;;;2.63;;
1360;SDS011;674;45.552;-122.600;2023-07-31T12:06:49;3.10;;;2.70;;
1360;SDS011;674;45.552;-122.600;2023-07-31T12:09:24;3.90;;;2.53;;
1360;SDS011;674;45.552;-122.600;2023-07-31T12:11:53;4.00;;;3.10;;
1360;SDS011;674;45.552;-122.600;2023-07-31T12:14:25;2.60;;;2.40;;
1360;SDS011;674;45.552;-122.600;2023-07-31T12:16:59;3.40;;;2.90;;
1360;SDS011;674;45.552;-122.600;2023-07-31T12:19:32;3.43;;;2.90;;
1360;SDS011;674;45.552;-122.600;2023-07-31T12:22:02;3.00;;;2.63;;
1360;SDS011;674;45.552;-122.600;2023-07-31T12:24:39;3.90;;;2.93;;
1360;SDS011;674;45.552;-122.600;2023-07-31T12:27:09;4.10;;;3.13;;
1360;SDS011;674;45.552;-122.600;2023-07-31T12:29:42;3.30;;;2.93;;
1360;SDS011;674;45.552;-122.600;2023-07-31T12:32:21;5.13;;;3.27;;
1360;SDS011;674;45.552;-122.600;2023-07-31T12:34:52;2.63;;;2.43;;
1360;SDS011;674;45.552;-122.600;2023-07-31T12:37:21;3.03;;;2.67;;
1360;SDS011;674;45.552;-122.600;2023-07-31T12:39:49;5.83;;;5.23;;
1360;SDS011;674;45.552;-122.600;2023-07-31T12:42:18;20.17;;;16.90;;
1360;SDS011;674;45.552;-122.600;2023-07-31T12:44:46;9.93;;;8.63;;
1360;SDS011;674;45.552;-122.600;2023-07-31T12:47:15;10.53;;;9.47;;
1360;SDS011;674;45.552;-122.600;2023-07-31T12:49:43;16.03;;;12.53;;
1360;SDS011;674;45.552;-122.600;2023-07-31T12:52:12;10.77;;;8.73;;
1360;SDS011;674;45.552;-122.600;2023-07-31T12:54:40;5.00;;;4.50;;
1360;SDS011;674;45.552;-122.600;2023-07-31T12:57:09;3.50;;;3.20;;
1360;SDS011;674;45.552;-122.600;2023-07-31T12:59:37;4.70;;;3.40;;
1360;SDS011;674;45.552;-122.600;2023-07-31T13:02:06;3.30;;;3.00;;
1360;SDS011;674;45.552;-122.600;2023-07-31T13:04:34;3.90;;;3.50;;
1360;SDS011;674;45.552;-122.600;2023-07-31T13:07:03;12.03;;;8.53;;
1360;SDS011;674;45.552;-122.600;2023-07-31T13:09:32;11.37;;;9.70;;
1360;SDS011;674;45.552;-122.600;2023-07-31T13:12:00;26.97;;;21.37;;
1360;SDS011;674;45.552;-122.600;2023-07-31T13:14:29;25.57;;;22.57;;
1360;SDS011;674;45.552;-122.600;2023-07-31T13:16:57;8.73;;;7.90;;
1360;SDS011;674;45.552;-122.600;2023-07-31T13:19:26;5.33;;;4.17;;
1360;SDS011;674;45.552;-122.600;2023-07-31T13:21:54;3.70;;;3.37;;
1360;SDS011;674;45.552;-122.600;2023-07-31T13:24:23;4.87;;;3.00;;
1360;SDS011;674;45.552;-122.600;2023-07-31T13:26:51;4.07;;;3.07;;
1360;SDS011;674;45.552;-122.600;2023-07-31T13:29:20;4.27;;;3.10;;
1360;SDS011;674;45.552;-122.600;2023-07-31T13:31:49;4.53;;;3.20;;
1360;SDS011;674;45.552;-122.600;2023-07-31T13:34:17;6.77;;;3.20;;
1360;SDS011;674;45.552;-122.600;2023-07-31T13:36:46;3.40;;;3.10;;
1360;SDS011;674;45.552;-122.600;2023-07-31T13:39:15;4.40;;;3.30;;
1360;SDS011;674;45.552;-122.600;2023-07-31T13:41:43;3.87;;;3.30;;
1360;SDS011;674;45.552;-122.600;2023-07-31T13:44:12;3.40;;;2.90;;
1360;SDS011;674;45.552;-122.600;2023-07-31T13:46:40;6.50;;;3.40;;
1360;SDS011;674;45.552;-122.600;2023-07-31T13:49:09;4.70;;;3.10;;
1360;SDS011;674;45.552;-122.600;2023-07-31T13:51:38;3.53;;;3.23;;
1360;SDS011;674;45.552;-122.600;2023-07-31T13:54:07;3.50;;;3.07;;
1360;SDS011;674;45.552;-122.600;2023-07-31T13:56:35;3.60;;;3.00;;
1360;SDS011;674;45.552;-122.600;2023-07-31T13:59:04;3.73;;;3.43;;
1360;SDS011;674;45.552;-122.600;2023-07-31T14:01:32;3.93;;;3.53;;
1360;SDS011;674;45.552;-122.600;2023-07-31T14:04:01;4.27;;;3.87;;
1360;SDS011;674;45.552;-122.600;2023-07-31T14:06:30;5.07;;;4.10;;
1360;SDS011;674;45.552;-122.600;2023-07-31T14:08:58;7.77;;;4.30;;
1360;SDS011;674;45.552;-122.600;2023-07-31T14:11:27;4.27;;;3.83;;
1360;SDS011;674;45.552;-122.600;2023-07-31T14:13:56;6.53;;;4.50;;
1360;SDS011;674;45.552;-122.600;2023-07-31T14:16:24;6.10;;;4.27;;
1360;SDS011;674;45.552;-122.600;2023-07-31T14:18:53;4.67;;;3.93;;
1360;SDS011;674;45.552;-122.600;2023-07-31T14:21:22;4.57;;;4.10;;
1360;SDS011;674;45.552;-122.600;2023-07-31T14:23:51;4.10;;;3.70;;
1360;SDS011;674;45.552;-122.600;2023-07-31T14:26:19;4.30;;;3.70;;
1360;SDS011;674;45.552;-122.600;2023-07-31T14:28:48;5.37;;;4.10;;
1360;SDS011;674;45.552;-122.600;2023-07-31T14:31:16;8.03;;;4.17;;
1360;SDS011;674;45.552;-122.600;2023-07-31T14:33:45;4.20;;;3.40;;
1360;SDS011;674;45.552;-122.600;2023-07-31T14:36:13;3.97;;;3.57;;
1360;SDS011;674;45.552;-122.600;2023-07-31T14:38:42;4.07;;;3.67;;
1360;SDS011;674;45.552;-122.600;2023-07-31T14:41:10;4.70;;;3.77;;
1360;SDS011;674;45.552;-122.600;2023-07-31T14:43:39;3.63;;;3.33;;
1360;SDS011;674;45.552;-122.600;2023-07-31T14:46:07;5.93;;;3.67;;
1360;SDS011;674;45.552;-122.600;2023-07-31T14:48:36;6.10;;;3.50;;
1360;SDS011;674;45.552;-122.600;2023-07-31T14:51:05;4.50;;;3.80;;
1360;SDS011;674;45.552;-122.600;2023-07-31T14:53:33;4.23;;;3.43;;
1360;SDS011;674;45.552;-122.600;2023-07-31T14:56:02;4.87;;;3.27;;
1360;SDS011;674;45.552;-122.600;2023-07-31T14:58:30;3.03;;;2.73;;
1360;SDS011;674;45.552;-122.600;2023-07-31T15:00:59;4.57;;;3.60;;
1360;SDS011;674;45.552;-122.600;2023-07-31T15:03:27;3.70;;;2.90;;